Time;durP1;ratioP1;P1;durP2;ratioP2;P2;SDS_P1;SDS_P2;PMS_P1;PMS_P2;Temp;Humidity;BMP_temperature;BMP_pressure;BME280_temperature;BME280_humidity;BME280_pressure;Samples;Min_cycle;Max_cycle;Signal;HPM_P1;HPM_P2
2022/12/16 00:01:07;;;;;;;37.67;21.25;;;2.80;89.70;;;;;;5073443;28;20385;-74
2022/12/16 00:09:29;;;;;;;34.17;20.30;;;2.90;89.90;;;;;;5255888;22;20049;-73
2022/12/16 00:11:55;;;;;;;34.47;20.23;;;2.80;89.50;;;;;;5030851;28;20538;-73
2022/12/16 00:14:20;;;;;;;31.48;20.10;;;2.90;89.60;;;;;;5033062;28;20493;-73
2022/12/16 00:16:46;;;;;;;34.90;19.50;;;2.90;89.50;;;;;;5015204;28;20542;-73
2022/12/16 00:31:53;;;;;;;32.55;20.25;;;2.90;88.90;;;;;;5081278;22;20056;-72
2022/12/16 00:34:19;;;;;;;34.38;20.45;;;2.90;89.00;;;;;;5035156;28;20032;-72
2022/12/16 00:43:28;;;;;;;35.42;20.20;;;2.90;89.30;;;;;;5373741;22;20060;-73
2022/12/16 00:45:54;;;;;;;35.05;19.52;;;2.90;89.40;;;;;;5056365;28;20458;-72
2022/12/16 00:48:21;;;;;;;33.97;19.40;;;2.90;89.50;;;;;;5056268;28;20029;-73
2022/12/16 00:50:52;;;;;;;38.42;21.35;;;2.90;89.50;;;;;;5038453;28;20374;-72
2022/12/16 00:53:19;;;;;;;32.58;19.35;;;2.90;89.40;;;;;;5056170;28;20036;-73
2022/12/16 00:55:45;;;;;;;32.38;20.38;;;2.90;89.40;;;;;;5038333;28;20029;-73
2022/12/16 00:58:11;;;;;;;37.08;19.60;;;2.90;89.40;;;;;;5055867;28;20025;-72
2022/12/16 01:00:37;;;;;;;31.92;19.33;;;2.90;89.50;;;;;;5021504;28;20083;-73
2022/12/16 01:03:03;;;;;;;35.55;20.20;;;2.90;89.40;;;;;;5055655;28;20115;-73
2022/12/16 01:05:29;;;;;;;39.05;20.02;;;2.90;89.40;;;;;;5055770;28;20044;-73
2022/12/16 01:07:55;;;;;;;35.05;20.35;;;2.90;89.40;;;;;;5056034;28;20457;-74
2022/12/16 01:10:22;;;;;;;34.47;20.90;;;2.90;89.30;;;;;;5037792;28;20120;-73
2022/12/16 01:12:48;;;;;;;34.05;20.10;;;2.90;89.30;;;;;;5055479;28;20072;-73
2022/12/16 01:15:14;;;;;;;36.08;19.48;;;3.00;89.40;;;;;;5055973;28;20398;-73
2022/12/16 01:17:41;;;;;;;37.28;21.23;;;2.90;89.30;;;;;;5055250;28;20115;-73
2022/12/16 01:20:08;;;;;;;37.13;20.27;;;3.00;89.40;;;;;;5037943;28;20044;-73
2022/12/16 01:22:34;;;;;;;35.60;20.88;;;2.90;89.30;;;;;;5055495;28;20029;-74
2022/12/16 01:25:01;;;;;;;36.03;21.17;;;2.90;89.50;;;;;;5055351;28;20056;-73
2022/12/16 01:27:27;;;;;;;34.22;21.25;;;3.00;89.60;;;;;;5037656;28;20180;-73
2022/12/16 01:29:53;;;;;;;35.38;21.85;;;2.90;89.60;;;;;;5037565;28;20444;-72
2022/12/16 01:32:18;;;;;;;39.60;22.48;;;3.00;89.80;;;;;;5055531;28;20029;-72
2022/12/16 01:34:52;;;;;;;42.92;25.42;;;3.00;89.80;;;;;;5021195;28;20079;-73
2022/12/16 01:37:17;;;;;;;39.15;24.23;;;2.90;89.40;;;;;;5055529;28;20032;-72
2022/12/16 01:39:44;;;;;;;37.28;23.30;;;2.90;89.40;;;;;;5020937;28;20044;-73
2022/12/16 01:42:15;;;;;;;36.78;22.98;;;2.90;89.40;;;;;;5020034;28;20509;-73
2022/12/16 01:44:43;;;;;;;39.97;23.95;;;2.80;89.40;;;;;;5037314;28;20037;-72
2022/12/16 01:47:14;;;;;;;39.75;22.98;;;2.80;89.60;;;;;;5037458;28;20028;-73
2022/12/16 01:49:45;;;;;;;38.20;22.98;;;2.80;89.90;;;;;;5037399;28;20062;-72
2022/12/16 01:52:18;;;;;;;37.58;22.70;;;2.80;90.00;;;;;;5055214;28;20119;-72
2022/12/16 01:54:57;;;;;;;40.60;22.65;;;2.80;90.00;;;;;;5054755;28;20112;-73
2022/12/16 01:57:39;;;;;;;39.88;22.67;;;2.80;90.00;;;;;;5037210;28;20029;-73
2022/12/16 02:00:06;;;;;;;37.50;22.58;;;2.80;89.90;;;;;;5053977;28;20054;-72
2022/12/16 02:02:33;;;;;;;37.20;22.00;;;2.80;89.70;;;;;;5036983;28;20060;-72
2022/12/16 02:08:06;;;;;;;37.60;22.10;;;2.70;89.80;;;;;;5054518;28;20040;-73
2022/12/16 02:10:44;;;;;;;38.15;21.73;;;2.80;89.90;;;;;;5037006;28;20051;-73
2022/12/16 02:13:15;;;;;;;36.03;21.75;;;2.70;90.00;;;;;;5054295;28;20029;-72
2022/12/16 02:16:14;;;;;;;40.00;23.20;;;2.80;90.10;;;;;;5054756;28;20025;-72
2022/12/16 02:19:09;;;;;;;36.83;22.50;;;2.80;90.10;;;;;;5036306;28;20025;-72
2022/12/16 02:22:02;;;;;;;43.67;24.42;;;2.80;90.20;;;;;;5054238;28;20028;-73
2022/12/16 02:24:36;;;;;;;40.42;24.15;;;2.70;90.20;;;;;;5054562;28;20083;-73
2022/12/16 02:27:11;;;;;;;42.83;23.83;;;2.70;90.30;;;;;;5036452;28;20380;-73
2022/12/16 02:29:50;;;;;;;39.33;24.30;;;2.70;90.40;;;;;;5036436;28;20476;-73
2022/12/16 02:32:42;;;;;;;38.42;23.48;;;2.70;90.40;;;;;;5054197;28;20037;-73
2022/12/16 02:35:10;;;;;;;39.72;22.92;;;2.70;90.40;;;;;;5036261;28;20052;-73
2022/12/16 02:37:41;;;;;;;36.03;23.15;;;2.60;90.40;;;;;;5036456;28;20021;-73
2022/12/16 02:40:31;;;;;;;47.65;26.05;;;2.60;90.50;;;;;;5054038;28;20044;-73
2022/12/16 02:43:06;;;;;;;40.45;23.75;;;2.60;90.50;;;;;;5053720;28;20473;-73
2022/12/16 02:45:32;;;;;;;41.25;22.60;;;2.60;90.50;;;;;;5036378;28;20021;-74
2022/12/16 02:47:58;;;;;;;39.90;23.05;;;2.60;90.50;;;;;;5054354;28;20035;-73
2022/12/16 02:50:24;;;;;;;43.60;23.92;;;2.70;90.60;;;;;;5053222;28;20393;-73
2022/12/16 02:52:51;;;;;;;38.20;22.85;;;2.70;90.60;;;;;;5036024;28;20037;-74
2022/12/16 02:55:17;;;;;;;41.05;23.02;;;2.60;90.50;;;;;;5053747;28;20029;-74
2022/12/16 02:58:06;;;;;;;37.33;22.92;;;2.70;90.60;;;;;;5053610;28;20399;-74
2022/12/16 03:00:48;;;;;;;42.45;24.17;;;2.80;90.70;;;;;;5054168;28;20051;-74
2022/12/16 03:03:21;;;;;;;41.63;23.45;;;2.80;90.80;;;;;;5035952;28;20051;-74
2022/12/16 03:05:49;;;;;;;40.10;22.48;;;2.80;90.80;;;;;;5036067;28;20033;-74
2022/12/16 03:08:22;;;;;;;43.60;23.75;;;2.80;90.80;;;;;;5034633;28;20025;-74
2022/12/16 03:10:56;;;;;;;43.35;22.98;;;2.90;90.80;;;;;;5035564;28;20063;-74
2022/12/16 03:13:22;;;;;;;39.30;23.70;;;2.90;90.80;;;;;;5052717;28;20025;-74
2022/12/16 03:18:20;;;;;;;37.42;23.13;;;2.90;90.80;;;;;;5051451;28;20563;-74
2022/12/16 03:21:00;;;;;;;40.42;24.00;;;2.90;90.80;;;;;;5053645;28;20501;-74
2022/12/16 03:23:34;;;;;;;40.78;24.23;;;3.00;90.90;;;;;;5054168;28;20028;-74
2022/12/16 03:26:09;;;;;;;40.17;23.50;;;3.00;91.00;;;;;;5053322;28;20047;-74
2022/12/16 03:28:40;;;;;;;41.50;23.58;;;3.00;91.00;;;;;;5053299;28;20451;-74
2022/12/16 03:31:28;;;;;;;37.17;23.52;;;3.00;91.00;;;;;;5053428;28;20120;-74
2022/12/16 03:34:15;;;;;;;39.72;24.65;;;3.00;91.00;;;;;;5053410;28;20024;-73
2022/12/16 03:36:44;;;;;;;40.97;23.63;;;3.00;91.00;;;;;;5052047;28;20021;-73
2022/12/16 03:39:10;;;;;;;41.05;25.23;;;3.00;91.10;;;;;;5052509;28;20052;-73
2022/12/16 03:41:37;;;;;;;41.45;23.73;;;3.00;91.10;;;;;;5053749;28;20060;-73
2022/12/16 03:44:06;;;;;;;40.33;23.63;;;3.10;91.20;;;;;;5035438;28;20112;-73
2022/12/16 03:46:31;;;;;;;42.80;25.20;;;3.00;91.10;;;;;;5052957;28;20370;-73
2022/12/16 03:48:57;;;;;;;40.88;24.98;;;3.00;91.20;;;;;;5019481;28;20080;-74
2022/12/16 03:51:23;;;;;;;41.13;23.83;;;3.00;91.40;;;;;;5053688;28;20418;-73
2022/12/16 03:53:49;;;;;;;39.60;23.45;;;3.00;91.40;;;;;;5018980;28;20036;-73
2022/12/16 03:56:15;;;;;;;41.42;23.25;;;3.00;91.50;;;;;;5051820;28;20502;-73
2022/12/16 03:58:40;;;;;;;47.50;26.30;;;3.00;91.50;;;;;;5035245;28;20029;-73
2022/12/16 04:01:08;;;;;;;39.63;24.13;;;3.00;91.50;;;;;;5052065;28;20072;-73
2022/12/16 04:03:34;;;;;;;41.92;25.00;;;3.00;91.60;;;;;;5053284;28;20029;-73
2022/12/16 04:06:00;;;;;;;42.30;24.63;;;3.10;91.70;;;;;;5035312;28;20029;-73
2022/12/16 04:08:25;;;;;;;56.95;28.45;;;3.10;91.70;;;;;;5018821;28;20397;-73
2022/12/16 04:24:34;;;;;;;55.40;27.98;;;3.00;92.60;;;;;;5055706;28;20127;-74
2022/12/16 04:34:24;;;;;;;54.10;27.92;;;3.10;93.20;;;;;;5055501;28;20040;-74
